Scroll down
FLIGHT INFORMATION
American Airlines

AAL2201

At Arrival Gate

KMEM
 KDAL
DATE: 2020-08-27
GATE: 
GATE DEPARTURE: 22:31
TAKEOFF: 22:44
DATE: 2020-08-27
GATE:  -
LANDING: 23:54
GATE ARRIVAL: 23:59
FLIGHT DATA
Speed: 
485 kts
Altitude: 
34,451 ft
Stage Length: 
366.8 nm
Block Time: 
1.5 hrs
Flight Time: 
1.2 hrs
Fuel Used: 
8,564 lb
Cleared Route: KMEM CHETO MUDHO NIXOE PEPOC CHLDR ANSWA LIT DIRRK KDAL
TRACK DATA
50,000 ft 1,000 kts
AIRCRAFT INFO AND CUMULATIVE STATS
Aircraft Type: 
B738BW
Registration: 
SELCAL: 
CPBD
MSN/LN: 
33231 / 4563
Operator: 
Total Flights: 
5
Total Block Time: 
5.3 hrs
Total Flight Time: 
4.1 hrs
Total Fuel Time: 
30,267 lb
DATALINK LOG | Newest first | Current as of: 2020-11-29 02:34:07
LABEL SEQUENCE CONTENT Dn/Up
QD024423:59 11.3▼ Dn
QC584123:54▼ Dn
2U1138KDAL 272153Z VRB04KT 10SM FEW050TCU FEW110 FEW250 33/19 A2976 RMK AO2 SLP069 OCNL LTGIC DSNT NW CB DSNT NW-N MOV S TCU W-NW AND▲ Up
2S1405KDAL▼ Dn
QB474022:44▼ Dn
QA342822:31 20▼ Dn
2U2248KMEM 272154Z 10018G23KT 10SM FEW030 BKN130 OVC200 29/23 A2976 RMK AO2 PRESFR SLP073 T02940233▲ Up
2S2520KMEM▼ Dn
A32125CLEARED TO KDAL VIA CHLDR4 ANSWA LIT DIRRK HIBIL3. SQUAWK .▲ Up
Q01611[LINK ACK]▲ Up
Q01611[LINK TEST]▼ Dn


AIRCRAFT HISTORY
FLIGHT DATE FLIGHT NO. ORIGIN DESTINATION CLEARED ROUTE BLOCK TIME FLIGHT TIME FUEL USED PILOT
2020-11-04AAL413KDFW KMEM KDFW FORCK ELD KMEM1.5 hrs1.2 hrs8,672 lbCharles Harris
2020-10-15AAL1572KTUL KDFW KTUL PEJAY AXXEE MMANN LKINS SEEVR BRDJE NUSSS YAHBT BOSSI RW17C1.1 hrs0.8 hrs5,852 lbMichael Collier
2020-10-13AAL1446KDFW KTUL 1.1 hrs0.7 hrs5,180 lbMichael Collier
2020-10-13AAL9501KDAL KDFW KDAL RAYMA RW35C0.4 hrs0.2 hrs1,999 lbMichael Collier
2020-08-27AAL2201KMEM KDAL KMEM CHETO MUDHO NIXOE PEPOC CHLDR ANSWA LIT DIRRK KDAL1.5 hrs1.2 hrs8,564 lbRoberto Stopnicki